Time;durP1;ratioP1;P1;durP2;ratioP2;P2;SDS_P1;SDS_P2;PMS_P1;PMS_P2;Temp;Humidity;BMP_temperature;BMP_pressure;BME280_temperature;BME280_humidity;BME280_pressure;Samples;Min_cycle;Max_cycle;Signal;HPM_P1;HPM_P2
2021/12/01 00:01:40;;;;;;;43.03;18.33;;;9.40;99.90;;;;;;5114430;28;20051;-76
2021/12/01 00:04:06;;;;;;;42.13;18.27;;;9.40;99.90;;;;;;5115612;28;20086;-75
2021/12/01 00:06:32;;;;;;;37.45;18.42;;;9.50;99.90;;;;;;5114313;28;20051;-76
2021/12/01 00:08:58;;;;;;;42.47;17.90;;;9.50;99.90;;;;;;5115467;28;20109;-76
2021/12/01 00:11:24;;;;;;;48.53;18.98;;;9.50;99.90;;;;;;5114110;28;20091;-75
2021/12/01 00:13:50;;;;;;;46.85;20.00;;;9.50;99.90;;;;;;5114644;28;20036;-76
2021/12/01 00:16:16;;;;;;;48.42;19.67;;;9.50;99.90;;;;;;5115461;28;20043;-76
2021/12/01 00:18:41;;;;;;;37.10;18.05;;;9.50;99.90;;;;;;5115162;28;20097;-75
2021/12/01 00:21:07;;;;;;;43.67;18.40;;;9.50;99.90;;;;;;5114198;28;20052;-75
2021/12/01 00:23:33;;;;;;;42.90;19.15;;;9.60;99.90;;;;;;5114878;28;20095;-76
2021/12/01 00:25:59;;;;;;;42.33;18.70;;;9.50;99.90;;;;;;5114260;28;20149;-75
2021/12/01 00:28:25;;;;;;;47.30;18.98;;;9.60;99.90;;;;;;5115154;28;20044;-75
2021/12/01 00:30:52;;;;;;;40.90;17.45;;;9.60;99.90;;;;;;5113502;28;20047;-75
2021/12/01 00:33:22;;;;;;;52.83;19.58;;;9.60;99.90;;;;;;5114270;28;20492;-75
2021/12/01 00:35:55;;;;;;;43.28;17.35;;;9.60;99.90;;;;;;5113774;28;20047;-76
2021/12/01 00:38:22;;;;;;;32.75;14.52;;;9.60;99.90;;;;;;5114863;28;20054;-75
2021/12/01 00:40:48;;;;;;;36.30;15.13;;;9.60;99.90;;;;;;5114211;28;20047;-75
2021/12/01 00:43:18;;;;;;;27.13;14.13;;;9.60;99.90;;;;;;5113799;28;20359;-76
2021/12/01 00:45:53;;;;;;;29.55;13.63;;;9.60;99.90;;;;;;5113557;28;20056;-76
2021/12/01 00:48:20;;;;;;;35.00;13.18;;;9.60;99.90;;;;;;5113929;28;20070;-75
2021/12/01 00:50:47;;;;;;;31.38;14.38;;;9.60;99.90;;;;;;5113559;28;20074;-75
2021/12/01 00:53:13;;;;;;;28.27;12.90;;;9.60;99.90;;;;;;5113977;28;20118;-75
2021/12/01 00:55:41;;;;;;;32.25;12.10;;;9.60;99.90;;;;;;5113679;28;20556;-75
2021/12/01 00:58:07;;;;;;;25.95;12.32;;;9.60;99.90;;;;;;5114511;28;20498;-75
2021/12/01 01:00:33;;;;;;;22.35;13.10;;;9.60;99.90;;;;;;5114358;28;20043;-76
2021/12/01 01:02:59;;;;;;;27.45;12.25;;;9.60;99.90;;;;;;5112148;28;20131;-76
2021/12/01 01:05:26;;;;;;;26.63;11.80;;;9.60;99.90;;;;;;5114348;27;20081;-75
2021/12/01 01:07:53;;;;;;;31.08;11.15;;;9.60;99.90;;;;;;5112801;28;20398;-75
2021/12/01 01:18:28;;;;;;;21.20;9.35;;;9.60;99.90;;;;;;5112818;28;20490;-76
2021/12/01 01:20:54;;;;;;;27.17;9.68;;;9.60;99.90;;;;;;5112560;28;20059;-74
2021/12/01 01:23:20;;;;;;;26.60;8.05;;;9.60;99.90;;;;;;5113003;28;20060;-75
2021/12/01 01:25:46;;;;;;;21.63;8.18;;;9.70;99.90;;;;;;5114194;28;20122;-75
2021/12/01 01:28:12;;;;;;;20.95;7.78;;;9.70;99.90;;;;;;5112627;28;20126;-74
2021/12/01 01:30:38;;;;;;;24.58;6.47;;;9.70;99.90;;;;;;5113380;28;20031;-75
2021/12/01 01:33:03;;;;;;;24.08;6.88;;;9.70;99.90;;;;;;5113948;28;20475;-75
2021/12/01 01:35:29;;;;;;;22.65;6.03;;;9.70;99.90;;;;;;5113010;28;20122;-76
2021/12/01 01:37:55;;;;;;;21.45;5.90;;;9.70;99.90;;;;;;5111775;28;20059;-75
2021/12/01 01:40:21;;;;;;;16.67;4.13;;;9.70;99.90;;;;;;5113941;28;20487;-75
2021/12/01 01:42:48;;;;;;;15.23;5.10;;;9.70;99.90;;;;;;5113916;28;20403;-75
2021/12/01 01:45:14;;;;;;;12.38;4.40;;;9.70;99.90;;;;;;5111849;28;20136;-75
2021/12/01 01:48:11;;;;;;;16.35;4.90;;;9.70;99.90;;;;;;5113967;28;20043;-75
2021/12/01 01:50:40;;;;;;;16.25;3.88;;;9.70;99.90;;;;;;5111511;28;20047;-75
2021/12/01 01:53:10;;;;;;;22.63;3.35;;;9.70;99.90;;;;;;5112161;28;20118;-75
2021/12/01 01:55:40;;;;;;;11.27;3.15;;;9.70;99.90;;;;;;5112143;28;20065;-75
2021/12/01 01:58:07;;;;;;;15.13;3.70;;;9.80;99.90;;;;;;5111650;28;20048;-75
2021/12/01 02:00:40;;;;;;;13.45;2.70;;;9.80;99.90;;;;;;5112415;28;20086;-75
2021/12/01 02:03:09;;;;;;;11.10;3.15;;;9.80;99.90;;;;;;5114076;28;20048;-75
2021/12/01 02:05:37;;;;;;;8.95;2.22;;;9.80;99.90;;;;;;5117015;28;20054;-76
2021/12/01 02:08:04;;;;;;;9.68;2.58;;;9.80;99.90;;;;;;5116189;28;20443;-75
2021/12/01 02:10:30;;;;;;;8.27;1.90;;;9.80;99.90;;;;;;5117769;28;20044;-74
2021/12/01 02:12:56;;;;;;;7.05;1.60;;;9.80;99.90;;;;;;5117108;28;20083;-75
2021/12/01 02:15:22;;;;;;;7.68;1.55;;;9.80;99.90;;;;;;5116504;28;20039;-74
2021/12/01 02:17:48;;;;;;;17.92;3.00;;;9.80;99.90;;;;;;5116438;28;20086;-75
2021/12/01 02:20:21;;;;;;;12.85;1.95;;;9.80;99.90;;;;;;5116141;28;20075;-75
2021/12/01 02:22:47;;;;;;;5.47;1.30;;;9.80;99.90;;;;;;5116090;28;20066;-75
2021/12/01 02:25:12;;;;;;;9.75;1.73;;;9.80;99.90;;;;;;5117644;28;20039;-75
2021/12/01 02:27:38;;;;;;;7.93;1.67;;;9.80;99.90;;;;;;5115292;28;20097;-75
2021/12/01 02:30:04;;;;;;;7.45;1.45;;;9.80;99.90;;;;;;5116167;28;20044;-75
2021/12/01 02:32:30;;;;;;;7.03;1.80;;;9.80;99.90;;;;;;5116648;28;20118;-75
2021/12/01 02:34:56;;;;;;;11.48;1.70;;;9.80;99.90;;;;;;5116212;28;20127;-75
2021/12/01 02:37:22;;;;;;;14.43;2.22;;;9.80;99.90;;;;;;5115519;28;20483;-75
2021/12/01 02:39:52;;;;;;;7.45;1.50;;;9.80;99.90;;;;;;5115332;28;20047;-75
2021/12/01 02:42:20;;;;;;;11.63;1.17;;;9.80;99.90;;;;;;5117164;28;20079;-75
2021/12/01 02:44:46;;;;;;;6.80;1.65;;;9.80;99.90;;;;;;5117077;27;20051;-74
2021/12/01 02:47:12;;;;;;;11.85;1.67;;;9.80;99.90;;;;;;5116192;28;20087;-75
2021/12/01 02:49:39;;;;;;;10.25;1.60;;;9.80;99.90;;;;;;5115413;28;20070;-75
2021/12/01 02:52:05;;;;;;;8.57;1.92;;;9.90;99.90;;;;;;5116564;28;20036;-76
2021/12/01 02:54:32;;;;;;;11.30;2.20;;;9.90;99.90;;;;;;5116184;28;20035;-74
2021/12/01 02:56:59;;;;;;;11.70;2.00;;;9.90;99.90;;;;;;5117013;28;20088;-75
2021/12/01 02:59:25;;;;;;;14.18;2.22;;;9.90;99.90;;;;;;5117052;28;20083;-75
2021/12/01 03:01:54;;;;;;;15.75;2.63;;;9.90;99.90;;;;;;5115024;28;20079;-75
2021/12/01 03:04:21;;;;;;;16.38;3.28;;;9.90;99.90;;;;;;5115654;28;20048;-75
2021/12/01 03:06:50;;;;;;;6.80;1.38;;;9.90;99.90;;;;;;5115165;28;20040;-75
2021/12/01 03:09:16;;;;;;;10.43;1.75;;;9.90;99.90;;;;;;5114664;28;20126;-76
2021/12/01 03:11:43;;;;;;;9.95;2.35;;;9.90;99.90;;;;;;5115732;28;20043;-75
2021/12/01 03:14:15;;;;;;;12.35;1.55;;;9.90;99.90;;;;;;5115640;28;20048;-75
2021/12/01 03:16:41;;;;;;;13.48;2.50;;;9.90;99.90;;;;;;5113367;28;20399;-75
2021/12/01 03:19:07;;;;;;;16.48;2.45;;;9.90;99.90;;;;;;5116619;28;20440;-75
2021/12/01 03:21:37;;;;;;;18.75;2.88;;;9.90;99.90;;;;;;5115738;28;20047;-75
2021/12/01 03:24:04;;;;;;;13.95;3.45;;;9.90;99.90;;;;;;5115597;28;20487;-75
2021/12/01 03:26:30;;;;;;;20.33;2.35;;;9.90;99.90;;;;;;5116403;28;20065;-75
2021/12/01 03:28:57;;;;;;;14.10;2.75;;;9.90;99.90;;;;;;5115308;28;20047;-75
2021/12/01 03:31:23;;;;;;;13.82;2.35;;;9.90;99.90;;;;;;5114913;28;20055;-74
2021/12/01 03:33:49;;;;;;;15.35;2.60;;;9.90;99.90;;;;;;5114892;28;20055;-75
2021/12/01 03:36:14;;;;;;;14.88;2.80;;;9.90;99.90;;;;;;5114124;28;20050;-75
2021/12/01 03:38:40;;;;;;;20.85;2.38;;;9.80;99.90;;;;;;5116024;28;20090;-75
2021/12/01 03:41:06;;;;;;;16.20;2.85;;;9.80;99.90;;;;;;5116216;28;20448;-76
2021/12/01 03:43:32;;;;;;;20.52;3.08;;;9.80;99.90;;;;;;5113918;28;20054;-76
2021/12/01 03:45:58;;;;;;;20.40;2.83;;;9.80;99.90;;;;;;5114659;28;20057;-75
2021/12/01 03:48:24;;;;;;;21.67;3.30;;;9.80;99.90;;;;;;5115782;28;20123;-76
2021/12/01 03:50:51;;;;;;;25.58;3.35;;;9.80;99.90;;;;;;5114601;28;20035;-75
2021/12/01 03:53:18;;;;;;;26.92;3.92;;;9.80;99.90;;;;;;5115514;28;20127;-75
2021/12/01 03:55:44;;;;;;;23.02;3.05;;;9.80;99.90;;;;;;5115909;28;20390;-75
2021/12/01 03:58:10;;;;;;;15.93;2.80;;;9.80;99.90;;;;;;5113676;28;20036;-75
2021/12/01 04:00:36;;;;;;;19.67;3.13;;;9.70;99.90;;;;;;5114581;28;20047;-76
2021/12/01 04:03:02;;;;;;;17.92;3.00;;;9.70;99.90;;;;;;5115475;28;20050;-75
2021/12/01 04:05:28;;;;;;;27.95;3.53;;;9.70;99.90;;;;;;5114890;28;20509;-75
2021/12/01 04:07:54;;;;;;;26.98;3.80;;;9.70;99.90;;;;;;5115104;28;20044;-75
2021/12/01 04:10:20;;;;;;;23.13;3.40;;;9.70;99.90;;;;;;5115541;28;20043;-76
2021/12/01 04:12:46;;;;;;;24.73;3.72;;;9.70;99.90;;;;;;5114657;28;20047;-75
2021/12/01 04:15:13;;;;;;;18.98;2.88;;;9.70;99.90;;;;;;5113974;28;20035;-75
2021/12/01 04:17:40;;;;;;;14.30;3.50;;;9.70;99.90;;;;;;5115512;28;20056;-75
2021/12/01 04:20:07;;;;;;;24.02;2.55;;;9.70;99.90;;;;;;5114254;28;20044;-76
2021/12/01 04:22:32;;;;;;;10.75;2.15;;;9.70;99.90;;;;;;5115094;28;20051;-76
2021/12/01 04:24:59;;;;;;;10.38;2.05;;;9.70;99.90;;;;;;5114128;28;20116;-75
2021/12/01 04:27:24;;;;;;;10.70;2.05;;;9.70;99.90;;;;;;5112847;28;20044;-75
2021/12/01 04:29:50;;;;;;;10.88;1.83;;;9.70;99.90;;;;;;5115135;28;20051;-76
2021/12/01 04:32:16;;;;;;;12.13;1.50;;;9.70;99.90;;;;;;5114207;28;20056;-75
2021/12/01 04:34:42;;;;;;;11.55;2.63;;;9.70;99.90;;;;;;5113764;28;20086;-75
2021/12/01 04:37:08;;;;;;;7.10;1.80;;;9.70;99.90;;;;;;5114634;28;20051;-76
2021/12/01 04:39:33;;;;;;;14.90;1.88;;;9.70;99.90;;;;;;5113131;28;20406;-75
2021/12/01 04:42:06;;;;;;;8.50;1.60;;;9.70;99.90;;;;;;5113813;28;20172;-75
2021/12/01 04:44:34;;;;;;;8.30;2.28;;;9.80;99.90;;;;;;5114945;28;20040;-76
2021/12/01 04:47:02;;;;;;;11.10;2.10;;;9.70;99.90;;;;;;5113513;28;20047;-75
2021/12/01 04:49:30;;;;;;;8.60;1.92;;;9.70;99.90;;;;;;5113342;28;20076;-75
2021/12/01 04:51:57;;;;;;;10.18;2.60;;;9.70;99.90;;;;;;5113157;28;20051;-75
2021/12/01 04:54:25;;;;;;;4.88;1.92;;;9.70;99.90;;;;;;5112647;28;20047;-75
2021/12/01 04:56:51;;;;;;;4.72;2.03;;;9.70;99.90;;;;;;5113214;28;20082;-75
2021/12/01 04:59:19;;;;;;;5.28;1.92;;;9.70;99.90;;;;;;5113232;28;20048;-76
2021/12/01 05:01:45;;;;;;;2.47;1.50;;;9.70;99.90;;;;;;5113604;28;20054;-76
2021/12/01 05:04:11;;;;;;;4.32;1.50;;;9.70;99.90;;;;;;5114464;28;20051;-75
2021/12/01 05:06:38;;;;;;;2.85;1.55;;;9.70;99.90;;;;;;5114082;28;20061;-75
2021/12/01 05:09:09;;;;;;;4.10;2.10;;;9.70;99.90;;;;;;5113649;28;20089;-76
2021/12/01 05:11:35;;;;;;;3.03;2.00;;;9.60;99.90;;;;;;5114451;28;20110;-75
2021/12/01 05:14:01;;;;;;;1.40;1.00;;;9.60;99.90;;;;;;5112976;28;20055;-75
2021/12/01 05:16:27;;;;;;;2.28;1.38;;;9.60;99.90;;;;;;5112628;28;20036;-75
2021/12/01 05:18:53;;;;;;;1.83;0.95;;;9.60;99.90;;;;;;5112892;28;20402;-75
2021/12/01 05:21:19;;;;;;;1.77;1.10;;;9.60;99.90;;;;;;5111799;28;20055;-75
2021/12/01 05:23:46;;;;;;;1.00;0.90;;;9.60;99.90;;;;;;5112873;28;20058;-76
2021/12/01 05:26:11;;;;;;;1.25;0.98;;;9.60;99.90;;;;;;5114089;28;20505;-76
2021/12/01 05:28:39;;;;;;;1.52;0.85;;;9.60;99.90;;;;;;5111868;28;20048;-75
2021/12/01 05:31:06;;;;;;;1.15;0.70;;;9.50;99.90;;;;;;5112846;28;20097;-75
2021/12/01 05:33:32;;;;;;;1.55;0.52;;;9.50;99.90;;;;;;5112916;28;20494;-75
2021/12/01 05:35:59;;;;;;;1.42;0.80;;;9.50;99.90;;;;;;5113243;28;20048;-75
2021/12/01 05:38:25;;;;;;;3.85;0.88;;;9.50;99.90;;;;;;5112863;28;20073;-75
2021/12/01 05:40:51;;;;;;;2.15;1.20;;;9.40;99.90;;;;;;5113860;28;20055;-76
2021/12/01 05:43:18;;;;;;;1.52;1.00;;;9.50;99.90;;;;;;5111789;28;20047;-75
2021/12/01 05:45:45;;;;;;;1.67;1.00;;;9.40;99.90;;;;;;5113982;28;20494;-75
2021/12/01 05:48:11;;;;;;;0.95;0.90;;;9.40;99.90;;;;;;5112607;28;20051;-75
2021/12/01 05:50:37;;;;;;;2.95;1.08;;;9.40;99.90;;;;;;5111462;28;20047;-75
2021/12/01 05:53:04;;;;;;;1.45;1.00;;;9.40;99.90;;;;;;5113590;28;20077;-75
2021/12/01 05:55:30;;;;;;;2.00;1.20;;;9.40;99.90;;;;;;5113857;28;20493;-75
2021/12/01 05:57:56;;;;;;;2.50;1.40;;;9.40;99.90;;;;;;5113062;28;20422;-76
2021/12/01 06:00:22;;;;;;;3.83;1.60;;;9.40;99.90;;;;;;5113381;28;20047;-75
2021/12/01 06:02:51;;;;;;;3.65;1.98;;;9.40;99.90;;;;;;5112492;28;20052;-75
2021/12/01 06:05:21;;;;;;;4.07;2.38;;;9.40;99.90;;;;;;5112787;28;20044;-75
2021/12/01 06:07:48;;;;;;;3.17;2.50;;;9.40;99.90;;;;;;5112131;28;20100;-75
2021/12/01 06:10:14;;;;;;;3.03;2.72;;;9.30;99.90;;;;;;5112310;28;20122;-76
2021/12/01 06:12:41;;;;;;;3.78;2.58;;;9.30;99.90;;;;;;5112861;28;20039;-76
2021/12/01 06:15:08;;;;;;;3.70;2.17;;;9.30;99.90;;;;;;5113866;28;20118;-76
2021/12/01 06:17:34;;;;;;;4.03;2.60;;;9.30;99.90;;;;;;5111723;28;20047;-75
2021/12/01 06:20:00;;;;;;;2.17;1.98;;;9.30;99.90;;;;;;5113946;28;20039;-76
2021/12/01 06:22:26;;;;;;;2.38;1.98;;;9.30;99.90;;;;;;5112046;28;20490;-75
2021/12/01 06:24:52;;;;;;;1.92;1.40;;;9.20;99.90;;;;;;5111463;28;20109;-76
2021/12/01 06:27:17;;;;;;;2.08;1.90;;;9.20;99.90;;;;;;5113387;28;20063;-76
2021/12/01 06:29:43;;;;;;;2.75;1.75;;;9.20;99.90;;;;;;5111960;28;20044;-75
2021/12/01 06:32:09;;;;;;;2.72;1.90;;;9.20;99.90;;;;;;5112573;28;20127;-75
2021/12/01 06:34:35;;;;;;;2.08;1.88;;;9.20;99.90;;;;;;5113363;28;20044;-75
2021/12/01 06:37:00;;;;;;;2.55;1.70;;;9.20;99.90;;;;;;5113081;28;20040;-76
2021/12/01 06:39:26;;;;;;;4.40;1.67;;;9.10;99.90;;;;;;5112547;28;20051;-75
2021/12/01 06:41:54;;;;;;;2.33;1.83;;;9.20;99.90;;;;;;5113319;28;20031;-76
2021/12/01 06:44:23;;;;;;;2.65;1.80;;;9.10;99.90;;;;;;5113490;28;20055;-76
2021/12/01 06:46:49;;;;;;;2.15;1.95;;;9.10;99.90;;;;;;5112417;28;20040;-76
2021/12/01 06:49:14;;;;;;;3.10;2.10;;;9.10;99.90;;;;;;5113463;28;20067;-76
2021/12/01 06:51:40;;;;;;;3.30;2.65;;;9.10;99.90;;;;;;5115756;28;20059;-76
2021/12/01 06:54:06;;;;;;;2.20;2.00;;;9.10;99.90;;;;;;5116081;28;20042;-76
2021/12/01 06:56:32;;;;;;;3.22;2.20;;;9.10;99.90;;;;;;5116964;28;20056;-76
2021/12/01 06:58:57;;;;;;;1.80;1.70;;;9.10;99.90;;;;;;5115675;28;20058;-76
2021/12/01 07:01:23;;;;;;;2.88;2.15;;;9.10;99.90;;;;;;5114947;28;20046;-76
2021/12/01 07:03:49;;;;;;;2.28;1.95;;;9.10;99.90;;;;;;5116903;28;20039;-76
2021/12/01 07:06:14;;;;;;;3.80;2.05;;;9.10;99.90;;;;;;5116634;28;20542;-74
2021/12/01 07:08:40;;;;;;;3.08;2.38;;;9.10;99.90;;;;;;5113971;28;20505;-76
2021/12/01 07:11:06;;;;;;;4.07;2.50;;;9.10;99.90;;;;;;5116575;28;20113;-75
2021/12/01 07:13:33;;;;;;;6.72;2.83;;;9.10;99.90;;;;;;5115375;28;20101;-76
2021/12/01 07:16:00;;;;;;;5.13;2.83;;;9.10;99.90;;;;;;5114589;28;20051;-76
2021/12/01 07:18:26;;;;;;;6.05;2.60;;;9.10;99.90;;;;;;5116469;28;20040;-76
2021/12/01 07:20:52;;;;;;;3.45;2.47;;;9.10;99.90;;;;;;5115500;28;20056;-76
2021/12/01 07:23:18;;;;;;;2.50;2.10;;;9.10;99.90;;;;;;5114527;28;20112;-76
2021/12/01 07:25:44;;;;;;;2.97;2.17;;;9.10;99.90;;;;;;5114751;28;20132;-76
2021/12/01 07:28:09;;;;;;;5.78;2.85;;;9.20;99.90;;;;;;5114449;28;20051;-75
2021/12/01 07:30:37;;;;;;;3.13;2.80;;;9.20;99.90;;;;;;5115181;28;20047;-76
2021/12/01 07:33:04;;;;;;;5.63;2.63;;;9.20;99.90;;;;;;5116107;28;20048;-76
2021/12/01 07:35:29;;;;;;;8.32;3.53;;;9.20;99.90;;;;;;5115533;28;20118;-76
2021/12/01 07:37:55;;;;;;;7.63;2.72;;;9.20;99.90;;;;;;5114900;28;20086;-75
2021/12/01 07:40:21;;;;;;;9.23;3.20;;;9.20;99.90;;;;;;5097925;28;20466;-76
2021/12/01 07:42:47;;;;;;;11.20;4.03;;;9.30;99.90;;;;;;5113817;28;20048;-76
2021/12/01 07:45:12;;;;;;;5.38;2.92;;;9.20;99.90;;;;;;5114032;28;20044;-76
2021/12/01 07:47:39;;;;;;;3.92;2.40;;;9.30;99.90;;;;;;5114882;28;20047;-76
2021/12/01 07:50:06;;;;;;;3.83;2.20;;;9.30;99.90;;;;;;5115120;27;20032;-76
2021/12/01 07:52:32;;;;;;;7.28;2.75;;;9.30;99.90;;;;;;5114479;28;20048;-76
2021/12/01 07:54:59;;;;;;;6.13;2.88;;;9.30;99.90;;;;;;5113030;28;20047;-76
2021/12/01 07:57:25;;;;;;;5.60;2.30;;;9.30;99.90;;;;;;5132045;27;20097;-76
2021/12/01 07:59:51;;;;;;;9.32;2.55;;;9.30;99.90;;;;;;5135203;27;20051;-76
2021/12/01 08:02:17;;;;;;;6.07;3.17;;;9.40;99.90;;;;;;5135831;27;20534;-76
2021/12/01 08:04:42;;;;;;;8.82;2.88;;;9.30;99.90;;;;;;5135497;27;20497;-76
2021/12/01 08:07:08;;;;;;;7.70;2.63;;;9.40;99.90;;;;;;5128866;27;20071;-76
2021/12/01 08:09:34;;;;;;;6.63;2.70;;;9.40;99.90;;;;;;5114376;28;20122;-76
2021/12/01 08:12:00;;;;;;;8.43;2.88;;;9.30;99.90;;;;;;5114580;28;20044;-76
2021/12/01 08:14:26;;;;;;;3.90;2.47;;;9.30;99.90;;;;;;5115251;28;20077;-77
2021/12/01 08:16:52;;;;;;;7.05;2.55;;;9.30;99.90;;;;;;5113961;28;20055;-76
2021/12/01 08:19:18;;;;;;;11.27;2.78;;;9.40;99.90;;;;;;5113530;28;20050;-76
2021/12/01 08:21:47;;;;;;;5.50;1.48;;;9.30;99.90;;;;;;5113831;28;20152;-76
2021/12/01 08:24:14;;;;;;;5.60;1.40;;;9.40;99.90;;;;;;5114194;28;20055;-78
2021/12/01 08:26:40;;;;;;;5.53;1.30;;;9.40;99.90;;;;;;5113886;28;20050;-77
2021/12/01 08:29:06;;;;;;;6.28;1.27;;;9.40;99.90;;;;;;5115262;28;20089;-77
2021/12/01 08:31:32;;;;;;;9.30;1.80;;;9.30;99.90;;;;;;5114501;27;20047;-76
2021/12/01 08:33:58;;;;;;;4.72;1.58;;;9.30;99.90;;;;;;5114885;28;20505;-77
2021/12/01 08:36:24;;;;;;;8.63;1.80;;;9.20;99.90;;;;;;5114529;28;20118;-76
2021/12/01 08:38:50;;;;;;;7.78;1.80;;;9.20;99.90;;;;;;5113317;28;20047;-77
2021/12/01 08:41:16;;;;;;;11.90;1.73;;;9.20;99.90;;;;;;5113386;28;20097;-76
2021/12/01 08:43:42;;;;;;;11.70;2.10;;;9.20;99.90;;;;;;5113600;28;20059;-76
2021/12/01 08:46:08;;;;;;;13.82;2.58;;;9.20;99.90;;;;;;5113605;28;20055;-77
2021/12/01 08:48:35;;;;;;;7.68;1.60;;;9.20;99.90;;;;;;5114458;28;20097;-77
2021/12/01 08:51:02;;;;;;;12.07;2.42;;;9.10;99.90;;;;;;5110111;28;20131;-76
2021/12/01 08:53:30;;;;;;;12.23;2.00;;;9.10;99.90;;;;;;5111183;28;20402;-77
2021/12/01 08:55:57;;;;;;;17.40;2.22;;;9.20;99.90;;;;;;5113313;28;20054;-77
2021/12/01 08:58:23;;;;;;;15.57;2.60;;;9.10;99.90;;;;;;5114511;28;20047;-76
2021/12/01 09:00:49;;;;;;;9.38;1.50;;;9.20;99.90;;;;;;5112309;28;20455;-78
2021/12/01 09:03:17;;;;;;;13.23;1.50;;;9.20;99.90;;;;;;5113010;28;20558;-77
2021/12/01 09:05:44;;;;;;;4.35;1.17;;;9.20;99.90;;;;;;5114382;28;20443;-77
2021/12/01 09:08:11;;;;;;;7.45;2.15;;;9.20;99.90;;;;;;5111903;28;20082;-77
2021/12/01 09:10:37;;;;;;;10.55;1.45;;;9.20;99.90;;;;;;5113052;28;20066;-77
2021/12/01 09:13:05;;;;;;;12.73;2.15;;;9.20;99.90;;;;;;5113198;28;20048;-77
2021/12/01 09:15:30;;;;;;;6.70;1.65;;;9.20;99.90;;;;;;5112029;28;20047;-77
2021/12/01 09:17:57;;;;;;;7.03;1.90;;;9.10;99.90;;;;;;5113874;28;20074;-78
2021/12/01 09:20:24;;;;;;;6.28;1.02;;;9.10;99.90;;;;;;5112196;28;20050;-79
2021/12/01 09:22:51;;;;;;;9.25;1.50;;;8.80;99.90;;;;;;5112680;28;20043;-77
2021/12/01 09:25:20;;;;;;;9.68;2.08;;;9.10;99.90;;;;;;5112230;28;20153;-76
2021/12/01 09:27:48;;;;;;;8.52;1.42;;;9.00;99.90;;;;;;5113018;28;20051;-77
2021/12/01 09:30:15;;;;;;;8.85;1.75;;;9.00;99.90;;;;;;5112888;28;20054;-76
2021/12/01 09:32:42;;;;;;;7.20;1.40;;;9.00;99.90;;;;;;5129655;27;20058;-77
2021/12/01 09:35:09;;;;;;;9.30;1.55;;;9.00;99.90;;;;;;5111908;28;20116;-77
2021/12/01 09:37:36;;;;;;;10.88;1.52;;;8.90;99.90;;;;;;5113743;28;20533;-76
2021/12/01 09:40:12;;;;;;;10.80;1.63;;;8.90;99.90;;;;;;5113525;28;20054;-76
2021/12/01 09:42:42;;;;;;;8.93;1.42;;;8.90;99.90;;;;;;5111379;28;20071;-76
2021/12/01 09:45:09;;;;;;;11.65;2.05;;;8.90;99.90;;;;;;5132395;27;20103;-76
2021/12/01 09:47:35;;;;;;;14.73;2.20;;;8.80;99.90;;;;;;5134063;27;20047;-76
2021/12/01 09:50:01;;;;;;;12.02;1.67;;;8.80;99.90;;;;;;5121223;28;20104;-77
2021/12/01 09:52:26;;;;;;;9.30;1.85;;;8.90;99.90;;;;;;5112637;28;20498;-77
2021/12/01 09:54:52;;;;;;;15.68;2.15;;;8.90;99.90;;;;;;5113490;28;20044;-77
2021/12/01 09:57:18;;;;;;;10.65;2.22;;;9.00;99.90;;;;;;5111366;28;20429;-77
2021/12/01 09:59:44;;;;;;;10.27;2.13;;;9.00;99.90;;;;;;5112615;28;20070;-76
2021/12/01 10:02:11;;;;;;;15.43;2.25;;;9.00;99.90;;;;;;5113692;28;20043;-76
2021/12/01 10:04:37;;;;;;;14.48;1.77;;;9.00;99.90;;;;;;5111391;28;20061;-77
2021/12/01 10:07:33;;;;;;;18.38;3.78;;;9.10;99.90;;;;;;5113312;28;20044;-76
2021/12/01 10:10:06;;;;;;;11.65;2.30;;;9.10;99.90;;;;;;5112458;28;20044;-77
2021/12/01 10:12:50;;;;;;;20.40;3.35;;;9.20;99.90;;;;;;5112519;28;20055;-76
2021/12/01 10:15:32;;;;;;;16.23;2.87;;;9.20;99.90;;;;;;5113343;28;20043;-77
2021/12/01 10:18:15;;;;;;;11.00;2.92;;;9.10;99.90;;;;;;5111543;28;20282;-78
2021/12/01 10:20:43;;;;;;;17.33;3.05;;;9.20;99.90;;;;;;5112042;28;20066;-76
2021/12/01 10:23:16;;;;;;;15.05;2.20;;;9.20;99.90;;;;;;5113213;28;20548;-77
2021/12/01 10:25:43;;;;;;;12.18;2.03;;;9.20;99.90;;;;;;5130885;27;20058;-76
2021/12/01 10:28:13;;;;;;;17.73;2.45;;;9.20;99.90;;;;;;5117383;28;20040;-77
2021/12/01 10:30:46;;;;;;;16.67;2.17;;;9.20;99.90;;;;;;5117421;28;20486;-77
2021/12/01 10:33:17;;;;;;;14.20;2.25;;;9.20;99.90;;;;;;5116907;28;20040;-76
2021/12/01 10:35:43;;;;;;;12.93;2.03;;;9.10;99.90;;;;;;5114322;28;20083;-77
2021/12/01 10:38:13;;;;;;;16.70;3.65;;;9.00;99.90;;;;;;5116237;28;20482;-78
2021/12/01 10:40:40;;;;;;;11.75;1.77;;;9.00;99.90;;;;;;5115534;28;20059;-78
2021/12/01 10:43:11;;;;;;;17.52;1.88;;;9.00;99.90;;;;;;5115783;28;20044;-77
2021/12/01 10:45:43;;;;;;;13.25;1.60;;;8.90;99.90;;;;;;5116296;27;20040;-77
2021/12/01 10:48:19;;;;;;;10.98;1.95;;;8.90;99.90;;;;;;5116596;28;20093;-76
2021/12/01 10:50:45;;;;;;;12.23;1.98;;;8.80;99.90;;;;;;5115573;28;20047;-77
2021/12/01 10:53:14;;;;;;;7.75;1.88;;;8.70;99.90;;;;;;5116103;28;20390;-76
2021/12/01 10:55:52;;;;;;;12.07;2.15;;;8.70;99.90;;;;;;5116492;27;20390;-80
2021/12/01 10:58:19;;;;;;;12.15;2.88;;;8.70;99.90;;;;;;5116959;28;20055;-76
2021/12/01 11:00:50;;;;;;;15.15;2.00;;;8.70;99.90;;;;;;5114964;28;20046;-76
2021/12/01 11:03:21;;;;;;;17.33;2.17;;;8.70;99.90;;;;;;5116632;28;20122;-75
2021/12/01 11:06:11;;;;;;;15.63;2.13;;;8.70;99.90;;;;;;5116757;27;20039;-77
2021/12/01 11:08:41;;;;;;;15.55;2.78;;;8.80;99.90;;;;;;5116272;28;20383;-76
2021/12/01 11:11:12;;;;;;;18.42;2.88;;;8.80;99.90;;;;;;5116604;28;20040;-76
2021/12/01 11:13:47;;;;;;;12.43;2.60;;;8.80;99.90;;;;;;5115237;28;20474;-76
2021/12/01 11:16:15;;;;;;;;;;;8.80;99.90;;;;;;5114402;28;20415;-76
2021/12/01 11:18:48;;;;;;;10.73;2.50;;;8.80;99.90;;;;;;5116337;28;19923;-75
2021/12/01 11:21:19;;;;;;;15.15;2.53;;;8.80;99.90;;;;;;5115757;27;20052;-76
2021/12/01 11:23:49;;;;;;;11.98;2.15;;;8.80;99.90;;;;;;5120677;27;20399;-75
2021/12/01 11:26:20;;;;;;;21.50;4.07;;;8.80;99.90;;;;;;5116249;28;20482;-75
2021/12/01 11:29:01;;;;;;;21.77;2.45;;;8.70;99.90;;;;;;5114249;28;20483;-76
2021/12/01 11:31:29;;;;;;;21.20;3.50;;;8.70;99.90;;;;;;5116199;28;20050;-75
2021/12/01 11:33:58;;;;;;;21.67;3.63;;;8.80;99.90;;;;;;5115009;28;20387;-75
2021/12/01 11:36:27;;;;;;;19.08;3.67;;;8.80;99.90;;;;;;5114200;28;20036;-76
2021/12/01 11:38:55;;;;;;;23.20;3.60;;;8.90;99.90;;;;;;5115786;28;20387;-76
2021/12/01 11:41:22;;;;;;;24.02;3.70;;;8.90;99.90;;;;;;5115082;28;20488;-76
2021/12/01 11:43:49;;;;;;;18.55;3.30;;;8.90;99.90;;;;;;5114619;28;20086;-75
2021/12/01 11:46:15;;;;;;;22.85;3.53;;;8.90;99.90;;;;;;5114889;28;20047;-76
2021/12/01 11:48:50;;;;;;;21.33;3.35;;;8.90;99.90;;;;;;5114873;28;20058;-76
2021/12/01 11:51:33;;;;;;;22.10;4.75;;;8.80;99.90;;;;;;5115517;28;20480;-74
2021/12/01 11:54:15;;;;;;;20.10;3.65;;;8.80;99.90;;;;;;5113304;28;20077;-73
2021/12/01 11:56:56;;;;;;;26.52;4.68;;;8.80;99.90;;;;;;5114748;28;20376;-74
2021/12/01 11:59:26;;;;;;;19.75;4.07;;;8.70;99.90;;;;;;5114508;28;20130;-74
2021/12/01 12:02:07;;;;;;;22.50;4.05;;;8.60;99.90;;;;;;5114464;28;20402;-74
2021/12/01 12:04:40;;;;;;;19.00;3.65;;;8.50;99.90;;;;;;5112416;28;20054;-75
2021/12/01 12:07:12;;;;;;;19.33;3.20;;;8.40;99.90;;;;;;5115472;28;20044;-75
2021/12/01 12:09:39;;;;;;;20.65;3.88;;;8.40;99.90;;;;;;5113552;28;20088;-75
2021/12/01 12:12:11;;;;;;;17.92;4.30;;;8.40;99.90;;;;;;5111697;28;20050;-75
2021/12/01 12:14:38;;;;;;;15.52;3.13;;;8.40;99.90;;;;;;5093873;28;20349;-75
2021/12/01 12:17:14;;;;;;;19.17;3.05;;;8.30;99.90;;;;;;5094244;28;20062;-74
2021/12/01 12:19:43;;;;;;;17.25;3.65;;;8.30;99.90;;;;;;5100992;27;20514;-75
2021/12/01 12:22:38;;;;;;;26.92;3.97;;;8.30;99.90;;;;;;5113770;28;20090;-76
2021/12/01 12:25:09;;;;;;;22.10;4.93;;;8.30;99.90;;;;;;5068933;28;20073;-75
2021/12/01 12:27:39;;;;;;;13.50;2.42;;;8.30;99.90;;;;;;5113047;28;20054;-75
2021/12/01 12:30:12;;;;;;;21.65;3.50;;;8.30;99.90;;;;;;5114795;28;20074;-75
2021/12/01 12:32:42;;;;;;;16.67;2.35;;;8.30;99.90;;;;;;5113965;28;20035;-75
2021/12/01 12:35:12;;;;;;;15.30;1.92;;;8.30;99.90;;;;;;5114695;28;20040;-76
2021/12/01 12:37:38;;;;;;;10.38;2.65;;;8.40;99.90;;;;;;5112614;28;20616;-76
2021/12/01 12:40:10;;;;;;;7.38;1.75;;;8.30;99.90;;;;;;5114346;28;20087;-76
2021/12/01 12:42:36;;;;;;;11.30;1.90;;;8.30;99.90;;;;;;5114652;28;20093;-75
2021/12/01 12:45:03;;;;;;;11.50;2.53;;;8.30;99.90;;;;;;5112590;28;20043;-76
2021/12/01 12:47:38;;;;;;;17.02;1.63;;;8.30;99.90;;;;;;5114332;28;20112;-76
2021/12/01 12:50:30;;;;;;;11.05;2.13;;;8.30;99.90;;;;;;5110711;28;20039;-76
2021/12/01 12:53:06;;;;;;;11.88;1.63;;;8.30;99.90;;;;;;5110795;28;20090;-75
2021/12/01 12:55:41;;;;;;;14.07;2.15;;;8.30;99.90;;;;;;5113159;28;20052;-74
2021/12/01 12:58:09;;;;;;;13.60;2.15;;;8.20;99.90;;;;;;5112177;28;20058;-74
2021/12/01 13:00:49;;;;;;;17.02;4.13;;;8.20;99.90;;;;;;5113531;28;20051;-75
2021/12/01 13:03:22;;;;;;;19.25;3.00;;;8.20;99.90;;;;;;5114368;28;20567;-74